Time;durP1;ratioP1;P1;durP2;ratioP2;P2;SDS_P1;SDS_P2;PMS_P1;PMS_P2;Temp;Humidity;BMP_temperature;BMP_pressure;BME280_temperature;BME280_humidity;BME280_pressure;Samples;Min_cycle;Max_cycle;Signal;HPM_P1;HPM_P2
2023/04/16 00:01:39;;;;;;;60.60;28.88;;;8.10;99.90;;;;;;5096908;28;20506;-76
2023/04/16 00:04:05;;;;;;;61.63;28.75;;;8.10;99.90;;;;;;5097090;28;20404;-76
2023/04/16 00:06:30;;;;;;;65.50;29.13;;;8.00;99.90;;;;;;5080699;28;20545;-76
2023/04/16 00:08:56;;;;;;;66.72;30.48;;;7.90;99.90;;;;;;5097189;28;20919;-76
2023/04/16 00:11:22;;;;;;;79.80;31.52;;;7.90;99.90;;;;;;5098412;28;20766;-76
2023/04/16 00:13:48;;;;;;;83.45;32.03;;;7.90;99.90;;;;;;5096423;28;20405;-76
2023/04/16 00:16:14;;;;;;;89.23;33.67;;;7.80;99.90;;;;;;5098593;28;20390;-76
2023/04/16 00:18:40;;;;;;;98.13;34.83;;;7.80;99.90;;;;;;5096571;28;20455;-76
2023/04/16 00:21:06;;;;;;;81.82;34.55;;;7.80;99.90;;;;;;5091824;28;20405;-76
2023/04/16 00:23:32;;;;;;;84.43;34.60;;;7.70;99.90;;;;;;5090042;28;20398;-76
2023/04/16 00:25:58;;;;;;;87.22;35.38;;;7.70;99.90;;;;;;5097121;28;20398;-77
2023/04/16 00:28:25;;;;;;;82.57;34.67;;;7.70;99.90;;;;;;5094864;28;20773;-76
2023/04/16 00:30:50;;;;;;;93.47;38.00;;;7.70;99.90;;;;;;5096084;28;20930;-76
2023/04/16 00:33:16;;;;;;;93.47;37.77;;;7.70;99.90;;;;;;5088368;28;20408;-76
2023/04/16 00:35:45;;;;;;;94.40;37.00;;;7.80;99.90;;;;;;5091487;28;20397;-76
2023/04/16 00:38:11;;;;;;;105.07;38.22;;;7.80;99.90;;;;;;5080712;28;20461;-76
2023/04/16 00:40:37;;;;;;;102.07;38.42;;;7.80;99.90;;;;;;5103459;28;20502;-76
2023/04/16 00:43:02;;;;;;;95.53;38.55;;;7.90;99.90;;;;;;5102091;28;20848;-75
2023/04/16 00:45:28;;;;;;;100.13;38.80;;;7.90;99.90;;;;;;5102769;28;20397;-76
2023/04/16 00:47:55;;;;;;;103.97;39.97;;;7.90;99.90;;;;;;5101420;28;20402;-76
2023/04/16 00:50:22;;;;;;;101.32;38.63;;;7.90;99.90;;;;;;5102661;28;20439;-76
2023/04/16 00:52:48;;;;;;;120.18;40.22;;;7.90;99.90;;;;;;5101864;28;20537;-76
2023/04/16 00:55:16;;;;;;;155.05;49.92;;;7.90;99.90;;;;;;5099889;28;20827;-76
2023/04/16 00:57:42;;;;;;;197.00;63.75;;;7.90;99.90;;;;;;5098533;28;20841;-76
2023/04/16 01:00:08;;;;;;;195.63;62.17;;;7.90;99.90;;;;;;5099346;28;20449;-77
2023/04/16 01:02:34;;;;;;;189.52;55.50;;;7.90;99.90;;;;;;5095922;28;20414;-76
2023/04/16 01:05:01;;;;;;;152.63;54.28;;;7.90;99.90;;;;;;5097424;28;20416;-76
2023/04/16 01:07:26;;;;;;;202.10;58.00;;;7.90;99.90;;;;;;5092024;28;20416;-75
2023/04/16 01:09:52;;;;;;;180.13;54.63;;;7.90;99.90;;;;;;5101171;28;20505;-76
2023/04/16 01:12:17;;;;;;;258.57;59.90;;;7.90;99.90;;;;;;5102700;28;20400;-77
2023/04/16 01:14:43;;;;;;;240.85;58.63;;;7.90;99.90;;;;;;5092521;28;20493;-76
2023/04/16 01:17:09;;;;;;;208.30;59.30;;;7.90;99.90;;;;;;5100041;28;20935;-76
2023/04/16 01:19:35;;;;;;;335.30;78.93;;;7.90;99.90;;;;;;5093006;28;20418;-76
2023/04/16 01:22:01;;;;;;;333.60;91.90;;;7.90;99.90;;;;;;5099410;28;20929;-76
2023/04/16 01:24:27;;;;;;;258.48;85.28;;;7.90;99.90;;;;;;5098266;28;20410;-76
2023/04/16 01:26:53;;;;;;;241.53;79.63;;;7.90;99.90;;;;;;5100012;28;20464;-76
2023/04/16 01:29:19;;;;;;;239.90;77.20;;;7.90;99.90;;;;;;5099994;28;20425;-76
2023/04/16 01:31:45;;;;;;;226.10;59.63;;;7.90;99.90;;;;;;5095783;28;20406;-76
2023/04/16 01:34:11;;;;;;;237.27;61.95;;;7.80;99.90;;;;;;5095490;28;20404;-76
2023/04/16 01:36:36;;;;;;;169.02;55.28;;;7.80;99.90;;;;;;5095168;28;20410;-75
2023/04/16 01:39:03;;;;;;;166.30;51.15;;;7.80;99.90;;;;;;5093976;28;20453;-76
2023/04/16 01:41:30;;;;;;;222.73;50.33;;;7.80;99.90;;;;;;5085357;28;20512;-76
2023/04/16 01:43:56;;;;;;;214.52;48.25;;;7.80;99.90;;;;;;5090920;28;20425;-76
2023/04/16 01:46:30;;;;;;;283.55;49.50;;;7.80;99.90;;;;;;5088136;28;20410;-76
2023/04/16 01:48:57;;;;;;;188.65;44.10;;;7.80;99.90;;;;;;5090412;28;20530;-76
2023/04/16 01:51:23;;;;;;;233.57;47.30;;;7.70;99.90;;;;;;5091501;28;20402;-77
2023/04/16 01:53:51;;;;;;;261.20;49.45;;;7.70;99.90;;;;;;5098443;28;20407;-77
2023/04/16 01:56:17;;;;;;;156.27;44.10;;;7.70;99.90;;;;;;5097798;28;20404;-77
2023/04/16 01:58:44;;;;;;;157.50;44.83;;;7.70;99.90;;;;;;5107265;28;20429;-78
2023/04/16 02:01:10;;;;;;;206.85;47.47;;;7.70;99.90;;;;;;5102179;28;20900;-77
2023/04/16 02:03:36;;;;;;;158.85;44.33;;;7.70;99.90;;;;;;5083007;28;20411;-76
2023/04/16 02:06:02;;;;;;;134.68;40.83;;;7.70;99.90;;;;;;5099636;28;20417;-77
2023/04/16 02:08:27;;;;;;;109.20;39.57;;;7.60;99.90;;;;;;5100945;28;21194;-77
2023/04/16 02:10:55;;;;;;;120.72;40.15;;;7.60;99.90;;;;;;5103801;28;20451;-76
2023/04/16 02:13:22;;;;;;;121.15;40.88;;;7.50;99.90;;;;;;5100718;28;20460;-77
2023/04/16 02:15:49;;;;;;;99.65;38.47;;;7.50;99.90;;;;;;5105356;28;20396;-76
2023/04/16 02:18:15;;;;;;;93.18;38.35;;;7.50;99.90;;;;;;5098422;27;20398;-76
2023/04/16 02:20:42;;;;;;;90.40;38.40;;;7.50;99.90;;;;;;5092246;28;20420;-77
2023/04/16 02:23:08;;;;;;;92.85;37.88;;;7.50;99.90;;;;;;5093407;28;20407;-77
2023/04/16 02:25:44;;;;;;;94.32;37.10;;;7.50;99.90;;;;;;5108897;28;20400;-76
2023/04/16 02:28:12;;;;;;;90.22;37.88;;;7.40;99.90;;;;;;5076760;28;20419;-76
2023/04/16 02:30:39;;;;;;;92.63;37.80;;;7.40;99.90;;;;;;5095142;28;20398;-76
2023/04/16 02:33:06;;;;;;;93.80;37.33;;;7.40;99.90;;;;;;5069655;28;20410;-76
2023/04/16 02:35:32;;;;;;;83.65;37.28;;;7.40;99.90;;;;;;5100023;28;20405;-76
2023/04/16 02:37:58;;;;;;;88.50;37.03;;;7.40;99.90;;;;;;5094290;28;20559;-76
2023/04/16 02:40:24;;;;;;;89.75;36.47;;;7.30;99.90;;;;;;5094438;28;20402;-76
2023/04/16 02:42:50;;;;;;;80.05;35.65;;;7.30;99.90;;;;;;5087973;28;20404;-76
2023/04/16 02:45:15;;;;;;;93.28;36.53;;;7.20;99.90;;;;;;5105814;28;20419;-76
2023/04/16 02:47:41;;;;;;;92.23;36.40;;;7.20;99.90;;;;;;5105016;28;20766;-76
2023/04/16 02:50:07;;;;;;;82.00;36.20;;;7.20;99.90;;;;;;5105488;28;20941;-76
2023/04/16 02:52:33;;;;;;;75.57;35.40;;;7.10;99.90;;;;;;5104215;28;20397;-76
2023/04/16 02:54:59;;;;;;;77.68;35.08;;;7.10;99.90;;;;;;5095276;28;20398;-76
2023/04/16 02:57:25;;;;;;;84.72;35.53;;;7.10;99.90;;;;;;5105663;28;20454;-76
2023/04/16 02:59:50;;;;;;;85.33;35.57;;;7.10;99.90;;;;;;5108208;28;20408;-78
2023/04/16 03:02:16;;;;;;;82.67;36.17;;;7.10;99.90;;;;;;5103303;28;20821;-76
2023/04/16 03:04:42;;;;;;;76.85;35.50;;;7.10;99.90;;;;;;5108579;28;20950;-77
2023/04/16 03:07:08;;;;;;;75.17;34.63;;;7.10;99.90;;;;;;5104915;28;20400;-76
2023/04/16 03:09:34;;;;;;;75.67;34.80;;;7.20;99.90;;;;;;5106693;28;20427;-77
2023/04/16 03:12:03;;;;;;;71.20;34.17;;;7.20;99.90;;;;;;5103509;28;20792;-76
2023/04/16 03:14:29;;;;;;;72.73;33.70;;;7.20;99.90;;;;;;5105587;28;20393;-77
2023/04/16 03:16:55;;;;;;;67.95;32.38;;;7.20;99.90;;;;;;5089527;28;20405;-76
2023/04/16 03:19:21;;;;;;;70.60;33.35;;;7.30;99.90;;;;;;5100771;28;20812;-76
2023/04/16 03:21:46;;;;;;;65.20;32.37;;;7.30;99.90;;;;;;5093780;28;20407;-76
2023/04/16 03:24:12;;;;;;;63.15;31.42;;;7.30;99.90;;;;;;5104552;28;20396;-77
2023/04/16 03:26:38;;;;;;;62.70;31.43;;;7.30;99.90;;;;;;5104310;28;20396;-76
2023/04/16 03:29:03;;;;;;;63.77;31.17;;;7.30;99.90;;;;;;5106076;28;20424;-76
2023/04/16 03:31:29;;;;;;;65.85;31.35;;;7.40;99.90;;;;;;5103025;28;20419;-76
2023/04/16 03:33:55;;;;;;;63.47;32.00;;;7.40;99.90;;;;;;5095213;28;20457;-76
2023/04/16 03:36:21;;;;;;;67.13;31.33;;;7.50;99.90;;;;;;5096722;28;20424;-76
2023/04/16 03:38:50;;;;;;;63.95;30.85;;;7.50;99.90;;;;;;5088024;28;20398;-76
2023/04/16 03:41:16;;;;;;;64.20;30.17;;;7.60;99.90;;;;;;5101817;28;20427;-76
2023/04/16 03:43:41;;;;;;;67.50;31.00;;;7.60;99.90;;;;;;5093798;28;20887;-75
2023/04/16 03:46:07;;;;;;;65.00;29.50;;;7.60;99.90;;;;;;5099359;28;20417;-76
2023/04/16 03:48:33;;;;;;;63.07;30.13;;;7.70;99.90;;;;;;5096735;28;21058;-76
2023/04/16 03:50:58;;;;;;;61.67;30.00;;;7.70;99.90;;;;;;5090564;28;20404;-76
2023/04/16 03:53:24;;;;;;;61.23;29.33;;;7.80;99.90;;;;;;5103100;28;20400;-76
2023/04/16 03:55:50;;;;;;;58.72;29.23;;;7.80;99.90;;;;;;5092955;28;20758;-76
2023/04/16 03:58:16;;;;;;;56.83;29.05;;;7.80;99.90;;;;;;5094840;28;20861;-77
2023/04/16 04:00:42;;;;;;;61.85;29.40;;;7.80;99.90;;;;;;5094365;28;20486;-76
2023/04/16 04:03:11;;;;;;;60.97;30.23;;;7.80;99.90;;;;;;5106657;28;20493;-76
2023/04/16 04:05:41;;;;;;;69.57;30.38;;;7.80;99.90;;;;;;5086980;28;20859;-76
2023/04/16 04:08:07;;;;;;;71.37;30.03;;;7.80;99.90;;;;;;5088388;28;20398;-76
2023/04/16 04:10:33;;;;;;;63.67;29.47;;;7.70;99.90;;;;;;5088418;28;20550;-76
2023/04/16 04:13:03;;;;;;;64.72;30.35;;;7.70;99.90;;;;;;5099191;28;20407;-76
2023/04/16 04:15:29;;;;;;;65.07;30.95;;;7.70;99.90;;;;;;5083267;28;20404;-76
2023/04/16 04:17:55;;;;;;;63.92;31.00;;;7.70;99.90;;;;;;5093608;28;20888;-76
2023/04/16 04:20:21;;;;;;;66.65;31.52;;;7.70;99.90;;;;;;5086427;28;21263;-76
2023/04/16 04:22:47;;;;;;;71.30;31.80;;;7.60;99.90;;;;;;5098348;28;20397;-76
2023/04/16 04:25:12;;;;;;;66.70;31.43;;;7.60;99.90;;;;;;5099588;28;21474;-76
2023/04/16 04:27:38;;;;;;;67.03;30.70;;;7.60;99.90;;;;;;5099919;28;20432;-76
2023/04/16 04:30:05;;;;;;;67.28;31.77;;;7.50;99.90;;;;;;5105656;28;20791;-76
2023/04/16 04:32:31;;;;;;;66.88;33.22;;;7.50;99.90;;;;;;5102552;28;20400;-76
2023/04/16 04:34:57;;;;;;;72.93;33.25;;;7.50;99.90;;;;;;5104718;28;20958;-77
2023/04/16 04:37:23;;;;;;;62.25;31.20;;;7.50;99.90;;;;;;5102857;28;20411;-76
2023/04/16 04:39:48;;;;;;;69.77;33.00;;;7.50;99.90;;;;;;5105476;28;20400;-77
2023/04/16 04:42:17;;;;;;;67.35;33.38;;;7.50;99.90;;;;;;5103781;28;20431;-76
2023/04/16 04:44:43;;;;;;;72.20;32.55;;;7.50;99.90;;;;;;5076726;28;20979;-76
2023/04/16 04:47:09;;;;;;;76.90;33.20;;;7.40;99.90;;;;;;5097652;28;20404;-76
2023/04/16 04:49:35;;;;;;;74.30;32.60;;;7.40;99.90;;;;;;5104245;28;20439;-76
2023/04/16 04:52:00;;;;;;;76.20;32.80;;;7.40;99.90;;;;;;5102734;28;20431;-76
2023/04/16 04:54:28;;;;;;;78.83;33.40;;;7.30;99.90;;;;;;5097252;28;20839;-76
2023/04/16 04:56:53;;;;;;;68.00;31.13;;;7.20;99.90;;;;;;5099290;28;20491;-76
2023/04/16 04:59:20;;;;;;;75.47;33.03;;;7.20;99.90;;;;;;5106000;28;20483;-76
2023/04/16 05:01:45;;;;;;;66.78;32.67;;;7.10;99.90;;;;;;5105588;28;20423;-76
2023/04/16 05:04:11;;;;;;;65.80;32.60;;;7.10;99.90;;;;;;5106936;28;20905;-76
2023/04/16 05:06:37;;;;;;;65.68;31.83;;;7.10;99.90;;;;;;5090713;28;20402;-76
2023/04/16 05:09:02;;;;;;;62.73;31.57;;;7.10;99.90;;;;;;5093344;28;20485;-76
2023/04/16 05:11:29;;;;;;;65.38;32.20;;;7.00;99.90;;;;;;5102538;28;20400;-76
2023/04/16 05:13:55;;;;;;;64.00;32.73;;;7.10;99.90;;;;;;5081496;28;20415;-76
2023/04/16 05:16:20;;;;;;;72.47;32.83;;;7.10;99.90;;;;;;5103195;28;20762;-77
2023/04/16 05:18:46;;;;;;;68.30;33.38;;;7.10;99.90;;;;;;5105461;28;20408;-76
2023/04/16 05:21:11;;;;;;;63.57;32.27;;;7.20;99.90;;;;;;5102337;28;20408;-76
2023/04/16 05:23:37;;;;;;;61.20;31.35;;;7.20;99.90;;;;;;5105217;28;20404;-76
2023/04/16 05:26:03;;;;;;;58.40;32.97;;;7.20;99.90;;;;;;5105808;28;20828;-76
2023/04/16 05:28:29;;;;;;;60.47;31.27;;;7.30;99.90;;;;;;5095283;28;21034;-76
2023/04/16 05:30:55;;;;;;;59.38;31.02;;;7.30;99.90;;;;;;5105242;28;20411;-77
2023/04/16 05:33:20;;;;;;;69.70;32.97;;;7.30;99.90;;;;;;5105488;28;20400;-76
2023/04/16 05:35:46;;;;;;;58.53;31.23;;;7.40;99.90;;;;;;5105857;28;20447;-76
2023/04/16 05:38:12;;;;;;;62.97;32.40;;;7.40;99.90;;;;;;5091112;28;20398;-76
2023/04/16 05:40:37;;;;;;;63.50;32.13;;;7.40;99.90;;;;;;5091184;28;20401;-76
2023/04/16 05:43:03;;;;;;;54.87;31.07;;;7.40;99.90;;;;;;5089764;28;21041;-76
2023/04/16 05:45:30;;;;;;;54.33;31.35;;;7.40;99.90;;;;;;5078445;28;21067;-76
2023/04/16 05:47:55;;;;;;;56.88;31.33;;;7.50;99.90;;;;;;5103700;28;20412;-76
2023/04/16 05:50:21;;;;;;;63.03;31.20;;;7.50;99.90;;;;;;5103987;28;20984;-76
2023/04/16 05:52:46;;;;;;;60.42;30.75;;;7.60;99.90;;;;;;5100193;28;20926;-76
2023/04/16 05:55:12;;;;;;;55.37;29.90;;;7.60;99.90;;;;;;5089071;28;20402;-76
2023/04/16 05:57:38;;;;;;;54.50;31.10;;;7.60;99.90;;;;;;5108116;28;20845;-76
2023/04/16 06:00:04;;;;;;;55.75;29.60;;;7.70;99.90;;;;;;5107599;28;20492;-76
2023/04/16 06:02:30;;;;;;;55.47;29.45;;;7.70;99.90;;;;;;5108541;28;20461;-76
2023/04/16 06:04:55;;;;;;;47.83;28.98;;;7.70;99.90;;;;;;5104686;28;20913;-76
2023/04/16 06:07:21;;;;;;;54.73;29.40;;;7.80;99.90;;;;;;5107440;28;20402;-78
2023/04/16 06:09:47;;;;;;;53.20;29.77;;;7.80;99.90;;;;;;5104087;28;20781;-76
2023/04/16 06:12:12;;;;;;;63.13;32.10;;;7.80;99.90;;;;;;5088989;28;20439;-76
2023/04/16 06:14:38;;;;;;;54.55;29.15;;;7.90;99.90;;;;;;5103561;28;20410;-76
2023/04/16 06:17:03;;;;;;;51.60;29.10;;;7.90;99.90;;;;;;5095526;28;20408;-76
2023/04/16 06:19:29;;;;;;;53.22;29.85;;;8.00;99.90;;;;;;5094307;28;20514;-76
2023/04/16 06:21:56;;;;;;;53.43;28.93;;;8.00;99.90;;;;;;5106625;28;20388;-77
2023/04/16 06:24:21;;;;;;;57.50;29.83;;;8.10;99.90;;;;;;5103150;28;20402;-76
2023/04/16 06:26:47;;;;;;;51.13;29.85;;;8.10;99.90;;;;;;5100824;28;20402;-76
2023/04/16 06:29:12;;;;;;;51.33;28.93;;;8.10;99.90;;;;;;5100876;28;20870;-76
2023/04/16 06:31:38;;;;;;;51.95;28.90;;;8.20;99.90;;;;;;5100995;28;20459;-76
2023/04/16 06:34:04;;;;;;;54.87;29.27;;;8.20;99.90;;;;;;5105838;28;20441;-76
2023/04/16 06:36:30;;;;;;;52.88;29.38;;;8.20;99.90;;;;;;5098435;28;20440;-77
2023/04/16 06:38:55;;;;;;;59.05;31.15;;;8.20;99.90;;;;;;5099969;28;20443;-76
2023/04/16 06:41:22;;;;;;;61.47;31.13;;;8.30;99.90;;;;;;5107034;28;20495;-76
2023/04/16 06:43:48;;;;;;;59.15;32.05;;;8.40;99.90;;;;;;5105576;28;20400;-76
2023/04/16 06:46:13;;;;;;;61.10;30.65;;;8.40;99.90;;;;;;5106736;28;20464;-76
2023/04/16 06:48:39;;;;;;;61.93;30.43;;;8.50;99.90;;;;;;5104210;28;20439;-76
2023/04/16 06:51:05;;;;;;;62.10;29.58;;;8.50;99.90;;;;;;5106556;28;20435;-76
2023/04/16 06:53:31;;;;;;;57.05;29.88;;;8.50;99.90;;;;;;5104593;28;20421;-77
2023/04/16 06:55:57;;;;;;;56.58;28.63;;;8.60;99.90;;;;;;5083134;28;20432;-77
2023/04/16 06:58:23;;;;;;;58.85;28.42;;;8.60;99.90;;;;;;5107567;28;20459;-76
2023/04/16 07:00:48;;;;;;;53.23;27.77;;;8.70;99.90;;;;;;5108347;28;20470;-76
2023/04/16 07:03:14;;;;;;;55.50;28.63;;;8.70;99.90;;;;;;5107153;28;20390;-76
2023/04/16 07:05:39;;;;;;;54.00;28.90;;;8.80;99.90;;;;;;5078419;28;20814;-76
2023/04/16 07:08:05;;;;;;;50.38;27.08;;;8.80;99.90;;;;;;5106714;28;20396;-77
2023/04/16 07:10:31;;;;;;;57.97;28.20;;;8.90;99.90;;;;;;5107542;28;20443;-77
2023/04/16 07:12:56;;;;;;;59.58;28.20;;;8.90;99.90;;;;;;5088711;28;20407;-77
2023/04/16 07:15:22;;;;;;;54.28;27.60;;;9.00;99.90;;;;;;5095839;28;20488;-77
2023/04/16 07:17:47;;;;;;;54.20;27.10;;;9.00;99.90;;;;;;5106900;28;20404;-77
2023/04/16 07:20:13;;;;;;;53.97;26.30;;;9.10;99.90;;;;;;5107795;28;20419;-78
2023/04/16 07:22:39;;;;;;;54.93;26.73;;;9.10;99.90;;;;;;5106002;28;20945;-77
2023/04/16 07:25:05;;;;;;;52.80;26.15;;;9.20;99.90;;;;;;5100902;28;20402;-77
2023/04/16 07:27:30;;;;;;;54.85;26.15;;;9.20;99.90;;;;;;5101290;28;20758;-77
2023/04/16 07:29:56;;;;;;;45.90;25.57;;;9.30;99.90;;;;;;5106549;28;20866;-77
2023/04/16 07:32:22;;;;;;;53.50;26.08;;;9.30;99.90;;;;;;5103999;28;20408;-77
2023/04/16 07:34:47;;;;;;;47.90;25.00;;;9.40;99.90;;;;;;5093539;28;20539;-77
2023/04/16 07:37:13;;;;;;;51.70;24.73;;;9.50;99.90;;;;;;5105047;28;20400;-77
2023/04/16 07:39:39;;;;;;;46.67;25.35;;;9.60;99.90;;;;;;5102550;28;20396;-77
2023/04/16 07:42:05;;;;;;;48.53;25.20;;;9.60;99.90;;;;;;5088632;28;21947;-77
2023/04/16 07:44:31;;;;;;;50.17;25.35;;;9.70;99.90;;;;;;5086413;28;20414;-79
2023/04/16 07:46:56;;;;;;;47.40;24.50;;;9.80;99.90;;;;;;5088536;28;20413;-79
2023/04/16 07:49:22;;;;;;;42.88;23.77;;;9.90;99.90;;;;;;5085261;28;20449;-79
2023/04/16 07:51:48;;;;;;;44.27;23.33;;;10.00;99.90;;;;;;5079671;28;20549;-78
2023/04/16 07:54:13;;;;;;;44.75;22.85;;;10.10;99.90;;;;;;5085297;28;20410;-79
2023/04/16 07:56:39;;;;;;;42.10;22.38;;;10.20;99.90;;;;;;5080805;28;20419;-78
2023/04/16 07:59:05;;;;;;;47.83;21.80;;;10.30;99.90;;;;;;5077737;28;20414;-78
2023/04/16 08:01:31;;;;;;;42.15;21.67;;;10.30;99.90;;;;;;5082692;28;20428;-78
2023/04/16 08:03:57;;;;;;;39.17;21.48;;;10.50;99.90;;;;;;5088531;28;20394;-78
2023/04/16 08:06:23;;;;;;;34.80;20.70;;;10.60;99.90;;;;;;5089580;28;21470;-79
2023/04/16 08:08:49;;;;;;;34.33;19.80;;;10.70;99.90;;;;;;5085671;28;20419;-79
2023/04/16 08:11:15;;;;;;;39.33;20.23;;;10.80;99.90;;;;;;5085906;28;20495;-78
2023/04/16 08:13:40;;;;;;;35.10;18.58;;;10.90;99.90;;;;;;5078777;28;20429;-80
2023/04/16 08:16:06;;;;;;;34.07;18.60;;;11.00;99.90;;;;;;5081402;28;20488;-79
2023/04/16 08:18:32;;;;;;;36.72;19.10;;;11.10;99.90;;;;;;5089649;28;20408;-78
2023/04/16 08:20:57;;;;;;;32.23;17.97;;;11.10;99.90;;;;;;5103616;28;20860;-78
2023/04/16 08:23:23;;;;;;;31.55;18.10;;;11.20;99.90;;;;;;5099868;28;20408;-78
2023/04/16 08:25:49;;;;;;;30.42;17.80;;;11.30;99.90;;;;;;5087360;28;20402;-75
2023/04/16 08:28:14;;;;;;;30.07;17.27;;;11.40;99.90;;;;;;5083633;28;20774;-75
2023/04/16 08:30:40;;;;;;;30.90;17.27;;;11.50;99.90;;;;;;5102396;28;20837;-76
2023/04/16 08:33:06;;;;;;;28.03;16.83;;;11.50;99.90;;;;;;5082934;28;20414;-76
2023/04/16 08:35:31;;;;;;;29.80;17.20;;;11.60;99.90;;;;;;5087997;28;20402;-76
2023/04/16 08:37:58;;;;;;;29.63;16.60;;;11.70;99.90;;;;;;5089318;28;20408;-77
2023/04/16 08:40:27;;;;;;;26.00;15.95;;;11.80;99.90;;;;;;5089220;28;20409;-76
2023/04/16 08:42:55;;;;;;;26.80;16.30;;;11.90;99.90;;;;;;5091786;28;20407;-77
2023/04/16 08:45:20;;;;;;;29.33;16.75;;;12.10;99.90;;;;;;5088540;28;20492;-77
2023/04/16 08:47:48;;;;;;;26.80;16.33;;;12.10;99.90;;;;;;5088432;28;20511;-77
2023/04/16 08:50:22;;;;;;;26.85;15.68;;;12.20;99.90;;;;;;5089719;28;20818;-77
2023/04/16 08:52:52;;;;;;;25.10;15.68;;;12.30;99.90;;;;;;5088559;28;20492;-77
2023/04/16 08:55:29;;;;;;;24.42;16.25;;;12.30;99.90;;;;;;5073916;28;20419;-77
2023/04/16 08:57:58;;;;;;;26.65;15.65;;;12.40;99.90;;;;;;5082933;28;20925;-77
2023/04/16 09:00:24;;;;;;;25.77;15.65;;;12.40;99.90;;;;;;5081351;28;20420;-77
2023/04/16 09:02:50;;;;;;;26.30;15.70;;;12.50;99.90;;;;;;5081631;28;20506;-77
2023/04/16 09:05:21;;;;;;;25.85;15.48;;;12.50;99.90;;;;;;5076673;28;20433;-77
2023/04/16 09:07:47;;;;;;;27.85;15.80;;;12.60;99.90;;;;;;5083573;28;20471;-77
2023/04/16 09:10:16;;;;;;;26.30;15.55;;;12.60;99.90;;;;;;5089988;27;20528;-77
2023/04/16 09:12:43;;;;;;;24.40;15.13;;;12.70;99.90;;;;;;5086260;28;20418;-78
2023/04/16 09:15:10;;;;;;;24.58;14.55;;;12.80;99.90;;;;;;5086491;28;20906;-77
2023/04/16 09:17:35;;;;;;;23.58;14.85;;;12.90;99.90;;;;;;5074434;28;20431;-77
2023/04/16 09:20:04;;;;;;;21.60;14.85;;;12.90;99.90;;;;;;5092140;28;20428;-77
2023/04/16 09:22:30;;;;;;;24.53;14.70;;;13.00;99.90;;;;;;5087611;28;20426;-77
2023/04/16 09:24:56;;;;;;;23.58;14.70;;;13.20;99.90;;;;;;5088522;28;20483;-78
2023/04/16 09:27:22;;;;;;;24.75;15.00;;;13.30;99.90;;;;;;5089024;28;20414;-77
2023/04/16 09:29:48;;;;;;;23.25;14.20;;;13.40;99.90;;;;;;5093134;28;20428;-77
2023/04/16 09:32:14;;;;;;;21.20;14.05;;;13.40;99.90;;;;;;5087099;28;20430;-78
2023/04/16 09:34:57;;;;;;;21.87;13.83;;;13.50;99.90;;;;;;5095986;28;20507;-77
2023/04/16 09:37:24;;;;;;;22.58;14.18;;;13.60;99.90;;;;;;5095250;28;20426;-77
2023/04/16 09:39:59;;;;;;;21.92;13.75;;;13.60;99.90;;;;;;5095214;28;20410;-76
2023/04/16 09:42:27;;;;;;;23.40;14.38;;;13.60;99.90;;;;;;5087624;28;20414;-76
2023/04/16 09:44:54;;;;;;;25.02;14.35;;;13.60;99.90;;;;;;5092153;28;20412;-76
2023/04/16 09:47:20;;;;;;;25.05;14.70;;;13.60;99.90;;;;;;5090094;28;20473;-75
2023/04/16 09:49:46;;;;;;;25.05;13.50;;;13.70;99.90;;;;;;5093469;28;20779;-75
2023/04/16 09:52:17;;;;;;;25.45;13.50;;;13.70;99.90;;;;;;5102444;28;20490;-76
2023/04/16 09:54:50;;;;;;;23.95;13.30;;;13.80;99.90;;;;;;5077181;28;20429;-76
2023/04/16 09:57:21;;;;;;;24.85;13.43;;;13.80;99.90;;;;;;5098700;28;20420;-76
2023/04/16 09:59:47;;;;;;;24.92;12.93;;;13.90;99.90;;;;;;5096807;28;20430;-76
2023/04/16 10:02:13;;;;;;;21.58;13.05;;;14.10;99.90;;;;;;5096323;28;20503;-76
2023/04/16 10:04:47;;;;;;;21.47;12.87;;;14.10;99.90;;;;;;5090247;28;20514;-75
2023/04/16 10:07:13;;;;;;;21.88;12.50;;;14.30;99.90;;;;;;5092073;28;20462;-74
2023/04/16 10:09:40;;;;;;;19.23;12.93;;;14.50;99.90;;;;;;5090080;28;20481;-75
2023/04/16 10:12:06;;;;;;;23.13;12.90;;;14.70;99.90;;;;;;5094567;28;20841;-75
2023/04/16 10:14:35;;;;;;;19.92;12.60;;;14.80;99.90;;;;;;5088346;28;20417;-76
2023/04/16 10:17:02;;;;;;;23.83;12.90;;;15.00;99.90;;;;;;5096175;28;20816;-76
2023/04/16 10:19:30;;;;;;;22.42;13.00;;;15.00;99.90;;;;;;5092702;28;20406;-76
2023/04/16 10:21:57;;;;;;;20.15;12.30;;;15.20;99.90;;;;;;5097807;28;20755;-76
2023/04/16 10:24:24;;;;;;;27.65;13.00;;;15.30;99.90;;;;;;5093950;28;20398;-76
2023/04/16 10:26:51;;;;;;;22.10;12.53;;;15.40;99.90;;;;;;5096897;28;20411;-76
2023/04/16 10:29:21;;;;;;;19.30;11.82;;;15.60;99.90;;;;;;5089738;28;20426;-76
2023/04/16 10:31:48;;;;;;;20.07;12.27;;;15.60;99.90;;;;;;5088910;28;20388;-76
2023/04/16 10:34:14;;;;;;;22.15;12.50;;;15.80;99.90;;;;;;5092236;28;20417;-76
2023/04/16 10:36:40;;;;;;;21.33;11.82;;;15.80;99.90;;;;;;5092233;28;20425;-76
2023/04/16 10:39:11;;;;;;;20.17;11.27;;;16.00;99.90;;;;;;5088937;28;20896;-77
2023/04/16 10:41:37;;;;;;;21.73;11.30;;;16.10;99.90;;;;;;5091533;28;20444;-75
2023/04/16 10:44:08;;;;;;;19.33;11.98;;;16.20;99.90;;;;;;5073088;28;21390;-76
2023/04/16 10:46:48;;;;;;;16.17;11.20;;;16.20;99.90;;;;;;5091926;28;20413;-77
2023/04/16 10:49:25;;;;;;;20.00;11.17;;;16.40;99.90;;;;;;5091054;28;20430;-78
2023/04/16 10:52:11;;;;;;;18.65;11.80;;;16.50;99.90;;;;;;5084265;28;20919;-77
2023/04/16 10:54:37;;;;;;;21.52;12.00;;;16.60;99.90;;;;;;5072623;28;20508;-78
2023/04/16 10:57:04;;;;;;;21.48;11.80;;;16.60;99.90;;;;;;5107220;28;20414;-77
2023/04/16 10:59:34;;;;;;;19.10;11.90;;;16.70;99.90;;;;;;5107941;28;20416;-77
2023/04/16 11:02:21;;;;;;;20.17;11.73;;;16.70;99.90;;;;;;5106886;28;20970;-77
2023/04/16 11:04:48;;;;;;;20.50;12.32;;;16.60;99.90;;;;;;5106493;28;20431;-77
2023/04/16 11:07:30;;;;;;;20.27;12.05;;;16.40;99.90;;;;;;5099437;28;20953;-77
2023/04/16 11:10:14;;;;;;;18.52;12.65;;;16.30;99.90;;;;;;5099586;28;20437;-77
2023/04/16 11:12:46;;;;;;;18.85;12.68;;;16.20;99.90;;;;;;5100854;28;20409;-77
2023/04/16 11:15:15;;;;;;;19.42;12.82;;;16.10;99.90;;;;;;5101079;28;20413;-78
2023/04/16 11:17:50;;;;;;;22.85;14.85;;;16.00;99.90;;;;;;5099877;28;20401;-80
2023/04/16 11:20:17;;;;;;;24.15;14.30;;;15.90;99.90;;;;;;5122397;27;20404;-78
2023/04/16 11:22:46;;;;;;;22.23;13.57;;;15.80;99.90;;;;;;5087259;28;20404;-78
2023/04/16 11:25:11;;;;;;;20.10;13.52;;;15.80;99.90;;;;;;5095954;28;20492;-77
2023/04/16 11:27:37;;;;;;;22.33;13.70;;;15.80;99.90;;;;;;5106271;28;20484;-78
2023/04/16 11:30:05;;;;;;;21.52;14.70;;;15.80;99.90;;;;;;5083926;28;20420;-77
2023/04/16 11:32:32;;;;;;;20.30;13.60;;;15.70;99.90;;;;;;5105341;28;20423;-77
2023/04/16 11:35:02;;;;;;;22.55;14.88;;;15.50;99.90;;;;;;5094000;28;20404;-77
2023/04/16 11:37:36;;;;;;;21.83;14.73;;;15.40;99.90;;;;;;5092499;27;20402;-79
2023/04/16 11:40:05;;;;;;;19.67;14.98;;;15.30;99.90;;;;;;5105823;28;20456;-77
2023/04/16 11:42:32;;;;;;;20.40;14.88;;;15.40;99.90;;;;;;5103304;28;20402;-77
2023/04/16 11:45:01;;;;;;;21.75;14.73;;;15.50;99.90;;;;;;5106121;28;20406;-77
2023/04/16 11:47:29;;;;;;;19.85;14.80;;;15.60;99.90;;;;;;5102946;28;20475;-77
2023/04/16 11:49:55;;;;;;;19.98;14.82;;;15.60;99.90;;;;;;5104674;28;20505;-76
2023/04/16 11:52:31;;;;;;;19.17;14.63;;;15.50;99.90;;;;;;5103173;28;20454;-77
2023/04/16 11:54:57;;;;;;;22.00;15.02;;;15.40;99.90;;;;;;5093945;28;20409;-76
2023/04/16 11:57:27;;;;;;;21.20;14.70;;;15.40;99.90;;;;;;5099936;28;20462;-76
2023/04/16 11:59:54;;;;;;;22.10;15.40;;;15.50;99.90;;;;;;5087388;28;20410;-77
2023/04/16 12:02:42;;;;;;;21.70;15.13;;;15.50;99.90;;;;;;5093554;28;20451;-77
2023/04/16 12:05:37;;;;;;;18.83;15.63;;;15.50;99.90;;;;;;5085378;28;20414;-77
2023/04/16 12:08:11;;;;;;;20.93;14.87;;;15.50;99.90;;;;;;5087342;28;20497;-77
2023/04/16 12:10:58;;;;;;;19.90;15.32;;;15.40;99.90;;;;;;5077520;28;21168;-77
2023/04/16 12:13:24;;;;;;;19.90;15.20;;;15.50;99.90;;;;;;5101088;28;20897;-78
2023/04/16 12:15:52;;;;;;;21.75;15.10;;;15.50;99.90;;;;;;5097599;28;20404;-77
2023/04/16 12:18:21;;;;;;;23.60;16.05;;;15.50;99.90;;;;;;5087335;28;20488;-77
2023/04/16 12:20:47;;;;;;;19.42;16.27;;;15.50;99.90;;;;;;5098326;28;20453;-77
2023/04/16 12:23:27;;;;;;;18.17;15.73;;;15.40;99.90;;;;;;5092004;28;20401;-77
2023/04/16 12:25:53;;;;;;;21.67;16.50;;;15.30;99.90;;;;;;5094095;28;20455;-77
2023/04/16 12:28:30;;;;;;;22.23;17.23;;;15.20;99.90;;;;;;5105188;28;20404;-77
2023/04/16 12:33:20;;;;;;;21.58;16.90;;;15.00;99.90;;;;;;5096789;27;20482;-73